sensor_id;sensor_type;location;lat;lon;timestamp;P1;durP1;ratioP1;P2;durP2;ratioP2
70757;SDS011;59316;52.964;7.102;2023-04-08T00:02:07;22.45;;;8.82;;
70757;SDS011;59316;52.964;7.102;2023-04-08T00:07:28;17.90;;;8.68;;
70757;SDS011;59316;52.964;7.102;2023-04-08T00:12:50;18.55;;;9.07;;
70757;SDS011;59316;52.964;7.102;2023-04-08T00:18:12;18.90;;;9.77;;
70757;SDS011;59316;52.964;7.102;2023-04-08T00:23:37;20.67;;;10.23;;
70757;SDS011;59316;52.964;7.102;2023-04-08T00:28:58;24.95;;;11.07;;
70757;SDS011;59316;52.964;7.102;2023-04-08T00:34:19;20.88;;;10.70;;
70757;SDS011;59316;52.964;7.102;2023-04-08T00:39:41;20.98;;;11.23;;
70757;SDS011;59316;52.964;7.102;2023-04-08T00:45:03;27.75;;;11.25;;
70757;SDS011;59316;52.964;7.102;2023-04-08T00:50:26;23.70;;;12.30;;
70757;SDS011;59316;52.964;7.102;2023-04-08T00:55:48;26.77;;;11.88;;
70757;SDS011;59316;52.964;7.102;2023-04-08T01:01:11;24.08;;;11.85;;
70757;SDS011;59316;52.964;7.102;2023-04-08T01:07:02;27.05;;;12.07;;
70757;SDS011;59316;52.964;7.102;2023-04-08T01:12:39;25.38;;;12.32;;
70757;SDS011;59316;52.964;7.102;2023-04-08T01:18:08;25.42;;;11.77;;
70757;SDS011;59316;52.964;7.102;2023-04-08T01:23:50;23.85;;;11.80;;
70757;SDS011;59316;52.964;7.102;2023-04-08T01:29:19;23.55;;;11.77;;
70757;SDS011;59316;52.964;7.102;2023-04-08T01:34:41;27.00;;;11.27;;
70757;SDS011;59316;52.964;7.102;2023-04-08T01:40:04;25.40;;;12.43;;
70757;SDS011;59316;52.964;7.102;2023-04-08T01:45:30;27.60;;;12.50;;
70757;SDS011;59316;52.964;7.102;2023-04-08T01:50:51;25.55;;;12.05;;
70757;SDS011;59316;52.964;7.102;2023-04-08T01:56:15;31.27;;;13.23;;
70757;SDS011;59316;52.964;7.102;2023-04-08T02:01:36;34.88;;;13.38;;
70757;SDS011;59316;52.964;7.102;2023-04-08T02:06:58;31.38;;;13.40;;
70757;SDS011;59316;52.964;7.102;2023-04-08T02:12:22;32.67;;;13.52;;
70757;SDS011;59316;52.964;7.102;2023-04-08T02:23:14;33.25;;;14.23;;
70757;SDS011;59316;52.964;7.102;2023-04-08T02:28:42;31.25;;;13.27;;
70757;SDS011;59316;52.964;7.102;2023-04-08T02:34:04;31.30;;;13.07;;
70757;SDS011;59316;52.964;7.102;2023-04-08T02:39:30;33.65;;;14.73;;
70757;SDS011;59316;52.964;7.102;2023-04-08T02:44:52;34.78;;;13.95;;
70757;SDS011;59316;52.964;7.102;2023-04-08T02:50:15;48.70;;;15.07;;
70757;SDS011;59316;52.964;7.102;2023-04-08T02:55:36;36.15;;;15.13;;
70757;SDS011;59316;52.964;7.102;2023-04-08T03:00:58;35.55;;;15.18;;
70757;SDS011;59316;52.964;7.102;2023-04-08T03:06:19;35.83;;;15.35;;
70757;SDS011;59316;52.964;7.102;2023-04-08T03:11:41;44.28;;;15.05;;
70757;SDS011;59316;52.964;7.102;2023-04-08T03:17:02;44.33;;;15.80;;
70757;SDS011;59316;52.964;7.102;2023-04-08T03:22:24;45.35;;;17.20;;
70757;SDS011;59316;52.964;7.102;2023-04-08T03:27:45;49.42;;;17.80;;
70757;SDS011;59316;52.964;7.102;2023-04-08T03:33:07;50.97;;;17.67;;
70757;SDS011;59316;52.964;7.102;2023-04-08T03:38:28;54.92;;;19.13;;
70757;SDS011;59316;52.964;7.102;2023-04-08T03:43:50;49.60;;;18.35;;
70757;SDS011;59316;52.964;7.102;2023-04-08T03:49:11;56.25;;;17.73;;
70757;SDS011;59316;52.964;7.102;2023-04-08T03:54:33;57.08;;;18.00;;
70757;SDS011;59316;52.964;7.102;2023-04-08T03:59:54;46.15;;;17.60;;
70757;SDS011;59316;52.964;7.102;2023-04-08T04:05:16;50.30;;;18.02;;
70757;SDS011;59316;52.964;7.102;2023-04-08T04:10:37;44.33;;;17.42;;
70757;SDS011;59316;52.964;7.102;2023-04-08T04:15:59;43.10;;;15.32;;
70757;SDS011;59316;52.964;7.102;2023-04-08T04:21:20;49.17;;;17.15;;
70757;SDS011;59316;52.964;7.102;2023-04-08T04:26:42;51.63;;;17.23;;
70757;SDS011;59316;52.964;7.102;2023-04-08T04:32:04;48.03;;;18.10;;
70757;SDS011;59316;52.964;7.102;2023-04-08T04:37:25;45.45;;;16.98;;
70757;SDS011;59316;52.964;7.102;2023-04-08T04:42:47;46.88;;;16.75;;
70757;SDS011;59316;52.964;7.102;2023-04-08T04:48:09;56.03;;;17.25;;
70757;SDS011;59316;52.964;7.102;2023-04-08T04:53:30;46.78;;;18.33;;
70757;SDS011;59316;52.964;7.102;2023-04-08T04:58:52;52.08;;;17.50;;
70757;SDS011;59316;52.964;7.102;2023-04-08T05:04:13;47.70;;;16.60;;
70757;SDS011;59316;52.964;7.102;2023-04-08T05:09:35;53.38;;;19.25;;
70757;SDS011;59316;52.964;7.102;2023-04-08T05:14:57;50.00;;;16.77;;
70757;SDS011;59316;52.964;7.102;2023-04-08T05:20:18;52.47;;;17.42;;
70757;SDS011;59316;52.964;7.102;2023-04-08T05:25:40;62.97;;;17.55;;
70757;SDS011;59316;52.964;7.102;2023-04-08T05:31:02;60.20;;;18.52;;
70757;SDS011;59316;52.964;7.102;2023-04-08T05:36:23;53.17;;;17.85;;
70757;SDS011;59316;52.964;7.102;2023-04-08T05:41:45;55.08;;;18.23;;
70757;SDS011;59316;52.964;7.102;2023-04-08T05:47:06;49.35;;;17.13;;
70757;SDS011;59316;52.964;7.102;2023-04-08T05:52:28;57.20;;;17.85;;
70757;SDS011;59316;52.964;7.102;2023-04-08T05:57:49;55.22;;;17.13;;
70757;SDS011;59316;52.964;7.102;2023-04-08T06:03:11;53.58;;;16.98;;
70757;SDS011;59316;52.964;7.102;2023-04-08T06:08:33;58.58;;;18.60;;
70757;SDS011;59316;52.964;7.102;2023-04-08T06:13:55;52.05;;;17.75;;
70757;SDS011;59316;52.964;7.102;2023-04-08T06:19:16;49.17;;;16.63;;
70757;SDS011;59316;52.964;7.102;2023-04-08T06:24:38;41.47;;;16.65;;
70757;SDS011;59316;52.964;7.102;2023-04-08T06:29:59;39.05;;;15.80;;
70757;SDS011;59316;52.964;7.102;2023-04-08T06:35:20;36.60;;;13.90;;
70757;SDS011;59316;52.964;7.102;2023-04-08T06:40:42;31.33;;;14.20;;
70757;SDS011;59316;52.964;7.102;2023-04-08T06:46:03;28.58;;;12.95;;
70757;SDS011;59316;52.964;7.102;2023-04-08T06:51:25;31.23;;;13.48;;
70757;SDS011;59316;52.964;7.102;2023-04-08T06:56:47;20.48;;;10.98;;
70757;SDS011;59316;52.964;7.102;2023-04-08T07:02:08;23.75;;;10.75;;
70757;SDS011;59316;52.964;7.102;2023-04-08T07:07:30;23.00;;;10.90;;
70757;SDS011;59316;52.964;7.102;2023-04-08T07:12:52;20.75;;;10.35;;
70757;SDS011;59316;52.964;7.102;2023-04-08T07:18:14;19.60;;;9.57;;
70757;SDS011;59316;52.964;7.102;2023-04-08T07:23:35;23.73;;;11.20;;
70757;SDS011;59316;52.964;7.102;2023-04-08T07:28:57;20.95;;;10.48;;
70757;SDS011;59316;52.964;7.102;2023-04-08T07:34:18;22.90;;;10.55;;
70757;SDS011;59316;52.964;7.102;2023-04-08T07:39:40;20.52;;;10.50;;
70757;SDS011;59316;52.964;7.102;2023-04-08T07:45:02;22.38;;;11.75;;
70757;SDS011;59316;52.964;7.102;2023-04-08T07:50:23;24.23;;;11.95;;
70757;SDS011;59316;52.964;7.102;2023-04-08T07:55:45;24.95;;;12.10;;
70757;SDS011;59316;52.964;7.102;2023-04-08T08:01:16;26.60;;;12.88;;
70757;SDS011;59316;52.964;7.102;2023-04-08T08:06:42;25.08;;;13.70;;
70757;SDS011;59316;52.964;7.102;2023-04-08T08:12:04;29.75;;;14.18;;
70757;SDS011;59316;52.964;7.102;2023-04-08T08:17:26;28.60;;;13.60;;
70757;SDS011;59316;52.964;7.102;2023-04-08T08:22:47;29.65;;;14.05;;
70757;SDS011;59316;52.964;7.102;2023-04-08T08:28:17;26.73;;;14.20;;
70757;SDS011;59316;52.964;7.102;2023-04-08T08:33:38;25.67;;;12.80;;
70757;SDS011;59316;52.964;7.102;2023-04-08T08:39:00;23.63;;;12.85;;
70757;SDS011;59316;52.964;7.102;2023-04-08T08:44:22;22.98;;;12.68;;
70757;SDS011;59316;52.964;7.102;2023-04-08T08:49:43;22.13;;;12.15;;
70757;SDS011;59316;52.964;7.102;2023-04-08T08:55:05;22.50;;;11.93;;
70757;SDS011;59316;52.964;7.102;2023-04-08T09:00:41;21.55;;;11.32;;
70757;SDS011;59316;52.964;7.102;2023-04-08T09:06:03;23.70;;;12.45;;
70757;SDS011;59316;52.964;7.102;2023-04-08T09:11:24;23.77;;;13.20;;
70757;SDS011;59316;52.964;7.102;2023-04-08T09:16:46;27.73;;;14.00;;
70757;SDS011;59316;52.964;7.102;2023-04-08T09:22:08;28.60;;;13.93;;
70757;SDS011;59316;52.964;7.102;2023-04-08T09:27:34;26.67;;;14.60;;
70757;SDS011;59316;52.964;7.102;2023-04-08T09:32:56;27.42;;;13.90;;
70757;SDS011;59316;52.964;7.102;2023-04-08T09:38:18;24.92;;;12.65;;
70757;SDS011;59316;52.964;7.102;2023-04-08T09:43:41;23.00;;;12.20;;
70757;SDS011;59316;52.964;7.102;2023-04-08T09:49:05;24.50;;;12.82;;
70757;SDS011;59316;52.964;7.102;2023-04-08T09:55:07;23.00;;;12.20;;
70757;SDS011;59316;52.964;7.102;2023-04-08T10:00:24;24.15;;;12.63;;
70757;SDS011;59316;52.964;7.102;2023-04-08T10:06:00;23.58;;;12.20;;
70757;SDS011;59316;52.964;7.102;2023-04-08T10:11:23;22.83;;;11.73;;
70757;SDS011;59316;52.964;7.102;2023-04-08T10:16:44;22.10;;;11.98;;
70757;SDS011;59316;52.964;7.102;2023-04-08T10:23:08;22.65;;;12.32;;
70757;SDS011;59316;52.964;7.102;2023-04-08T10:33:32;20.30;;;10.95;;
70757;SDS011;59316;52.964;7.102;2023-04-08T10:38:54;21.77;;;11.15;;
70757;SDS011;59316;52.964;7.102;2023-04-08T10:44:23;26.75;;;13.07;;
70757;SDS011;59316;52.964;7.102;2023-04-08T10:49:46;27.83;;;14.18;;
70757;SDS011;59316;52.964;7.102;2023-04-08T10:55:07;28.63;;;14.65;;
70757;SDS011;59316;52.964;7.102;2023-04-08T11:00:33;31.25;;;15.23;;
70757;SDS011;59316;52.964;7.102;2023-04-08T11:05:57;32.85;;;16.42;;
70757;SDS011;59316;52.964;7.102;2023-04-08T11:11:20;34.88;;;16.42;;
70757;SDS011;59316;52.964;7.102;2023-04-08T11:16:42;34.05;;;16.40;;
70757;SDS011;59316;52.964;7.102;2023-04-08T11:22:04;34.92;;;16.42;;
70757;SDS011;59316;52.964;7.102;2023-04-08T11:27:25;34.33;;;16.95;;
70757;SDS011;59316;52.964;7.102;2023-04-08T11:32:47;34.13;;;16.77;;
70757;SDS011;59316;52.964;7.102;2023-04-08T11:38:09;37.97;;;18.50;;
70757;SDS011;59316;52.964;7.102;2023-04-08T11:43:31;37.38;;;17.98;;
70757;SDS011;59316;52.964;7.102;2023-04-08T11:49:06;36.80;;;17.60;;
70757;SDS011;59316;52.964;7.102;2023-04-08T11:54:29;41.85;;;18.60;;
70757;SDS011;59316;52.964;7.102;2023-04-08T11:59:52;44.05;;;21.83;;
70757;SDS011;59316;52.964;7.102;2023-04-08T12:05:14;52.88;;;24.40;;
70757;SDS011;59316;52.964;7.102;2023-04-08T12:10:36;48.50;;;22.77;;
70757;SDS011;59316;52.964;7.102;2023-04-08T12:15:57;46.13;;;22.55;;
70757;SDS011;59316;52.964;7.102;2023-04-08T12:21:19;45.05;;;22.58;;
70757;SDS011;59316;52.964;7.102;2023-04-08T12:26:40;47.47;;;25.45;;
70757;SDS011;59316;52.964;7.102;2023-04-08T12:32:02;50.08;;;23.10;;
70757;SDS011;59316;52.964;7.102;2023-04-08T12:37:23;44.95;;;22.58;;
70757;SDS011;59316;52.964;7.102;2023-04-08T12:42:45;54.83;;;26.13;;
70757;SDS011;59316;52.964;7.102;2023-04-08T12:48:06;53.50;;;26.00;;
70757;SDS011;59316;52.964;7.102;2023-04-08T12:53:28;59.45;;;29.73;;
70757;SDS011;59316;52.964;7.102;2023-04-08T12:58:50;56.25;;;28.88;;
70757;SDS011;59316;52.964;7.102;2023-04-08T13:04:11;63.33;;;30.25;;
70757;SDS011;59316;52.964;7.102;2023-04-08T13:09:33;63.03;;;30.63;;
70757;SDS011;59316;52.964;7.102;2023-04-08T13:14:54;58.42;;;29.33;;
70757;SDS011;59316;52.964;7.102;2023-04-08T13:20:16;57.67;;;28.85;;
70757;SDS011;59316;52.964;7.102;2023-04-08T13:25:37;49.05;;;27.02;;
70757;SDS011;59316;52.964;7.102;2023-04-08T13:30:59;60.25;;;29.42;;
70757;SDS011;59316;52.964;7.102;2023-04-08T13:36:21;69.72;;;30.75;;
70757;SDS011;59316;52.964;7.102;2023-04-08T13:41:43;59.08;;;28.63;;
70757;SDS011;59316;52.964;7.102;2023-04-08T13:47:04;56.35;;;28.52;;
70757;SDS011;59316;52.964;7.102;2023-04-08T13:52:26;61.28;;;30.45;;
70757;SDS011;59316;52.964;7.102;2023-04-08T13:57:47;58.72;;;31.60;;
70757;SDS011;59316;52.964;7.102;2023-04-08T14:03:09;58.97;;;31.20;;
70757;SDS011;59316;52.964;7.102;2023-04-08T14:08:30;59.83;;;30.23;;
70757;SDS011;59316;52.964;7.102;2023-04-08T14:13:52;56.47;;;31.17;;
70757;SDS011;59316;52.964;7.102;2023-04-08T14:19:14;68.05;;;35.67;;
70757;SDS011;59316;52.964;7.102;2023-04-08T14:24:36;59.67;;;33.65;;
70757;SDS011;59316;52.964;7.102;2023-04-08T14:29:57;65.47;;;34.75;;
70757;SDS011;59316;52.964;7.102;2023-04-08T14:35:19;57.53;;;30.77;;
70757;SDS011;59316;52.964;7.102;2023-04-08T14:40:40;56.08;;;32.17;;
70757;SDS011;59316;52.964;7.102;2023-04-08T14:46:02;57.80;;;32.75;;
70757;SDS011;59316;52.964;7.102;2023-04-08T14:51:24;63.13;;;34.25;;
70757;SDS011;59316;52.964;7.102;2023-04-08T14:56:45;57.70;;;32.65;;
70757;SDS011;59316;52.964;7.102;2023-04-08T15:02:07;61.63;;;33.33;;
70757;SDS011;59316;52.964;7.102;2023-04-08T15:07:28;55.47;;;32.47;;
70757;SDS011;59316;52.964;7.102;2023-04-08T15:12:50;51.25;;;31.25;;
70757;SDS011;59316;52.964;7.102;2023-04-08T15:18:11;54.70;;;32.67;;
70757;SDS011;59316;52.964;7.102;2023-04-08T15:23:32;51.15;;;30.58;;
70757;SDS011;59316;52.964;7.102;2023-04-08T15:28:54;51.17;;;30.38;;
70757;SDS011;59316;52.964;7.102;2023-04-08T15:34:15;51.63;;;31.08;;
70757;SDS011;59316;52.964;7.102;2023-04-08T15:39:37;49.92;;;28.70;;
70757;SDS011;59316;52.964;7.102;2023-04-08T15:44:59;47.33;;;29.65;;
70757;SDS011;59316;52.964;7.102;2023-04-08T15:50:21;48.65;;;30.77;;
70757;SDS011;59316;52.964;7.102;2023-04-08T15:55:42;42.65;;;24.25;;
70757;SDS011;59316;52.964;7.102;2023-04-08T16:01:04;38.70;;;22.67;;
70757;SDS011;59316;52.964;7.102;2023-04-08T16:06:25;35.08;;;22.08;;
70757;SDS011;59316;52.964;7.102;2023-04-08T16:11:47;33.20;;;20.40;;
70757;SDS011;59316;52.964;7.102;2023-04-08T16:17:08;39.38;;;26.42;;
70757;SDS011;59316;52.964;7.102;2023-04-08T16:22:30;37.17;;;20.88;;
70757;SDS011;59316;52.964;7.102;2023-04-08T16:27:51;33.95;;;20.83;;
70757;SDS011;59316;52.964;7.102;2023-04-08T16:33:13;36.17;;;21.92;;
70757;SDS011;59316;52.964;7.102;2023-04-08T16:38:34;39.30;;;21.38;;
70757;SDS011;59316;52.964;7.102;2023-04-08T16:43:56;50.97;;;22.30;;
70757;SDS011;59316;52.964;7.102;2023-04-08T16:49:17;42.20;;;23.20;;
70757;SDS011;59316;52.964;7.102;2023-04-08T16:54:39;116.55;;;65.57;;
70757;SDS011;59316;52.964;7.102;2023-04-08T17:00:00;37.60;;;22.00;;
70757;SDS011;59316;52.964;7.102;2023-04-08T17:05:22;43.85;;;22.90;;
70757;SDS011;59316;52.964;7.102;2023-04-08T17:10:43;42.97;;;22.30;;
70757;SDS011;59316;52.964;7.102;2023-04-08T17:16:05;40.00;;;21.67;;
70757;SDS011;59316;52.964;7.102;2023-04-08T17:21:30;40.05;;;21.58;;
70757;SDS011;59316;52.964;7.102;2023-04-08T17:26:52;40.47;;;21.35;;
70757;SDS011;59316;52.964;7.102;2023-04-08T17:32:14;34.22;;;20.17;;
70757;SDS011;59316;52.964;7.102;2023-04-08T17:37:35;39.63;;;20.90;;
70757;SDS011;59316;52.964;7.102;2023-04-08T17:42:57;38.95;;;19.67;;
70757;SDS011;59316;52.964;7.102;2023-04-08T17:48:18;39.28;;;21.10;;
70757;SDS011;59316;52.964;7.102;2023-04-08T17:53:40;40.33;;;20.88;;
70757;SDS011;59316;52.964;7.102;2023-04-08T17:59:02;36.55;;;20.08;;
70757;SDS011;59316;52.964;7.102;2023-04-08T18:04:23;34.38;;;19.73;;
70757;SDS011;59316;52.964;7.102;2023-04-08T18:09:48;31.30;;;18.52;;
70757;SDS011;59316;52.964;7.102;2023-04-08T18:15:10;34.72;;;18.88;;
70757;SDS011;59316;52.964;7.102;2023-04-08T18:20:35;39.35;;;21.73;;
70757;SDS011;59316;52.964;7.102;2023-04-08T18:25:57;41.33;;;22.65;;
70757;SDS011;59316;52.964;7.102;2023-04-08T18:31:18;44.55;;;22.48;;
70757;SDS011;59316;52.964;7.102;2023-04-08T18:36:40;37.38;;;21.35;;
70757;SDS011;59316;52.964;7.102;2023-04-08T18:42:01;37.40;;;21.08;;
70757;SDS011;59316;52.964;7.102;2023-04-08T18:47:23;38.15;;;20.58;;
70757;SDS011;59316;52.964;7.102;2023-04-08T18:52:45;34.08;;;19.20;;
70757;SDS011;59316;52.964;7.102;2023-04-08T18:58:06;35.83;;;20.00;;
70757;SDS011;59316;52.964;7.102;2023-04-08T19:03:28;40.28;;;20.58;;
70757;SDS011;59316;52.964;7.102;2023-04-08T19:08:49;38.95;;;19.90;;
70757;SDS011;59316;52.964;7.102;2023-04-08T19:14:12;49.13;;;27.73;;
70757;SDS011;59316;52.964;7.102;2023-04-08T19:19:33;39.00;;;20.23;;
70757;SDS011;59316;52.964;7.102;2023-04-08T19:24:55;61.70;;;31.70;;
70757;SDS011;59316;52.964;7.102;2023-04-08T19:30:16;59.20;;;27.42;;
70757;SDS011;59316;52.964;7.102;2023-04-08T19:35:38;37.58;;;20.80;;
70757;SDS011;59316;52.964;7.102;2023-04-08T19:41:00;130.60;;;70.53;;
70757;SDS011;59316;52.964;7.102;2023-04-08T19:46:21;53.33;;;27.60;;
70757;SDS011;59316;52.964;7.102;2023-04-08T19:51:43;40.35;;;20.77;;
70757;SDS011;59316;52.964;7.102;2023-04-08T19:57:05;87.78;;;39.55;;
70757;SDS011;59316;52.964;7.102;2023-04-08T20:02:26;49.13;;;24.23;;
70757;SDS011;59316;52.964;7.102;2023-04-08T20:07:48;52.92;;;26.20;;
70757;SDS011;59316;52.964;7.102;2023-04-08T20:13:09;44.45;;;22.63;;
70757;SDS011;59316;52.964;7.102;2023-04-08T20:18:31;51.60;;;22.17;;
70757;SDS011;59316;52.964;7.102;2023-04-08T20:23:52;46.67;;;23.92;;
70757;SDS011;59316;52.964;7.102;2023-04-08T20:29:14;56.53;;;25.63;;
70757;SDS011;59316;52.964;7.102;2023-04-08T20:34:35;54.55;;;25.35;;
70757;SDS011;59316;52.964;7.102;2023-04-08T20:39:57;54.13;;;24.27;;
70757;SDS011;59316;52.964;7.102;2023-04-08T20:45:18;55.97;;;25.60;;
70757;SDS011;59316;52.964;7.102;2023-04-08T20:50:40;56.78;;;26.30;;
70757;SDS011;59316;52.964;7.102;2023-04-08T20:56:02;117.88;;;55.42;;
70757;SDS011;59316;52.964;7.102;2023-04-08T21:01:24;64.10;;;28.02;;
70757;SDS011;59316;52.964;7.102;2023-04-08T21:06:46;64.72;;;27.85;;
70757;SDS011;59316;52.964;7.102;2023-04-08T21:12:08;70.60;;;29.55;;
70757;SDS011;59316;52.964;7.102;2023-04-08T21:17:29;76.13;;;31.25;;
70757;SDS011;59316;52.964;7.102;2023-04-08T21:22:51;75.38;;;30.20;;
70757;SDS011;59316;52.964;7.102;2023-04-08T21:28:13;70.20;;;30.35;;
70757;SDS011;59316;52.964;7.102;2023-04-08T21:33:34;78.65;;;33.38;;
70757;SDS011;59316;52.964;7.102;2023-04-08T21:38:56;70.82;;;30.73;;
70757;SDS011;59316;52.964;7.102;2023-04-08T21:44:17;80.80;;;31.30;;
70757;SDS011;59316;52.964;7.102;2023-04-08T21:49:39;72.90;;;29.75;;
70757;SDS011;59316;52.964;7.102;2023-04-08T21:55:00;76.95;;;30.92;;
70757;SDS011;59316;52.964;7.102;2023-04-08T22:00:23;68.05;;;28.73;;
70757;SDS011;59316;52.964;7.102;2023-04-08T22:05:44;69.07;;;27.27;;
70757;SDS011;59316;52.964;7.102;2023-04-08T22:11:06;61.63;;;26.25;;
70757;SDS011;59316;52.964;7.102;2023-04-08T22:16:27;61.10;;;25.27;;
70757;SDS011;59316;52.964;7.102;2023-04-08T22:21:49;63.65;;;25.45;;
70757;SDS011;59316;52.964;7.102;2023-04-08T22:27:11;52.13;;;23.77;;
70757;SDS011;59316;52.964;7.102;2023-04-08T22:32:32;59.53;;;24.17;;
70757;SDS011;59316;52.964;7.102;2023-04-08T22:37:54;57.05;;;22.38;;
70757;SDS011;59316;52.964;7.102;2023-04-08T22:43:15;40.72;;;19.20;;
70757;SDS011;59316;52.964;7.102;2023-04-08T22:48:37;44.05;;;19.77;;
70757;SDS011;59316;52.964;7.102;2023-04-08T22:53:58;39.97;;;17.58;;
70757;SDS011;59316;52.964;7.102;2023-04-08T22:59:20;40.20;;;17.38;;
70757;SDS011;59316;52.964;7.102;2023-04-08T23:04:41;32.50;;;15.38;;
70757;SDS011;59316;52.964;7.102;2023-04-08T23:10:03;38.25;;;16.42;;
70757;SDS011;59316;52.964;7.102;2023-04-08T23:15:25;32.40;;;15.30;;
70757;SDS011;59316;52.964;7.102;2023-04-08T23:20:53;34.58;;;15.70;;
70757;SDS011;59316;52.964;7.102;2023-04-08T23:26:16;31.73;;;14.70;;
70757;SDS011;59316;52.964;7.102;2023-04-08T23:31:39;33.97;;;16.90;;
70757;SDS011;59316;52.964;7.102;2023-04-08T23:37:01;36.38;;;16.58;;
70757;SDS011;59316;52.964;7.102;2023-04-08T23:42:23;39.67;;;17.50;;
70757;SDS011;59316;52.964;7.102;2023-04-08T23:47:44;40.40;;;16.98;;
70757;SDS011;59316;52.964;7.102;2023-04-08T23:53:06;41.65;;;17.38;;
70757;SDS011;59316;52.964;7.102;2023-04-08T23:58:27;40.88;;;18.35;;
